world map with IPH marked

IPH - Airport

This information may not be accurate or current and is not valid for navigation or flight planning. No warranty of fitness for any purpose is made or implied.

flag of Perakflag of Malaysia

Donate via PayPal

Additional information is available on the NEW Great Circle Mapper

Location
City:  Ipoh, Perak, Malaysia
Name:Sultan Azlan Shah
ICAO / IATA:WMKI / IPH

Details
Type:Airport (Aerodrome, Airfield)
Use:Public/Civil
Latitude:4°34'05"N (4.567972)
Longitude:101°05'32"E (101.092194)
Datum:WGS 1984
Elevation:130 ft (40 m)
Runways:1
Longest:5900 × 121 ft (1798 × 37 m)

Time
Timezone:UTC+8 (DST+10)
Local Time:

Weather
METAR:WMKI  041400Z 00000KT 8000 FEW005 FEW017CB BKN280 25/24 Q1014
TAF:WMKI  (expired)

Related Locations
Nearby:
Farthest:LOH: 12385 mi / 19931 km
Loja (La Toma) [Ciudad de Catamayo Airport (Camilo Ponce Enriquez Airport)], L, EC

Find:

   beyond  
but within

Other Information
Maps:
Sources:

  


 


Great Circle Mapper   Great Circle Mapper
Great Circle Mapper FAQ   Great Circle Mapper FAQ
  Karl's Home Page
KLSē   KLSē Home
   GC on Facebook
Airlines of the World   Airlines of the World
Donate via PayPal


Copyright © 2004-2019, Karl L. Swartz. All rights reserved.
All trademarks mentioned herein belong to their respective owners.

Please see credits for attribution and copyright information.

Karl Swartz <karl@kls2.com>
  Powered by FreeBSD
Valid HTML 4.01!
Labeled with ICRA
hCard Microformat
Geo Microformat